Time;durP1;ratioP1;P1;durP2;ratioP2;P2;SDS_P1;SDS_P2;PMS_P1;PMS_P2;Temp;Humidity;BMP_temperature;BMP_pressure;BME280_temperature;BME280_humidity;BME280_pressure;Samples;Min_cycle;Max_cycle;Signal;HPM_P1;HPM_P2
2022/12/17 13:06:39;;;;;;;30.42;18.58;;;2.10;99.90;;;;;;5053321;28;20106;-52
2022/12/17 13:09:27;;;;;;;36.55;20.67;;;2.20;99.90;;;;;;5053184;28;20100;-50
2022/12/17 13:11:58;;;;;;;38.33;20.05;;;2.20;99.90;;;;;;5046137;28;20112;-49
2022/12/17 13:14:52;;;;;;;38.60;19.95;;;2.20;99.90;;;;;;5052660;28;20025;-51
2022/12/17 13:17:17;;;;;;;34.80;19.90;;;2.10;99.90;;;;;;5053012;28;20032;-49
2022/12/17 13:19:43;;;;;;;35.35;20.05;;;2.10;99.90;;;;;;5052167;28;20033;-51
2022/12/17 13:22:28;;;;;;;38.17;20.17;;;2.20;99.90;;;;;;5050374;28;20070;-53
2022/12/17 13:25:22;;;;;;;36.45;20.98;;;2.10;99.90;;;;;;5058719;28;20017;-52
2022/12/17 13:27:49;;;;;;;35.38;20.10;;;1.90;99.90;;;;;;5072737;28;20124;-52
2022/12/17 13:30:17;;;;;;;35.13;19.65;;;1.90;99.90;;;;;;5070770;28;20039;-52
2022/12/17 13:33:08;;;;;;;32.55;19.75;;;1.80;99.90;;;;;;5057569;28;20075;-51
2022/12/17 13:35:52;;;;;;;31.30;16.88;;;1.70;99.90;;;;;;5052551;28;20021;-50
2022/12/17 13:38:26;;;;;;;32.58;17.85;;;1.80;99.90;;;;;;5052462;28;20032;-51
2022/12/17 13:41:10;;;;;;;28.25;16.77;;;1.80;99.90;;;;;;5055835;28;20129;-50
2022/12/17 13:43:49;;;;;;;30.13;16.13;;;1.60;99.90;;;;;;5052473;28;20029;-52
2022/12/17 13:46:27;;;;;;;25.48;15.30;;;1.60;99.90;;;;;;5052357;28;20025;-50
2022/12/17 13:49:00;;;;;;;22.98;14.70;;;1.60;99.90;;;;;;5052300;28;20032;-50
2022/12/17 13:51:28;;;;;;;30.10;16.70;;;1.60;99.90;;;;;;5050598;28;20025;-51
2022/12/17 13:53:59;;;;;;;31.45;17.70;;;1.60;99.90;;;;;;5052623;28;20024;-50
2022/12/17 13:56:28;;;;;;;35.35;18.98;;;1.70;99.90;;;;;;5065055;28;20031;-53
2022/12/17 13:58:56;;;;;;;40.70;19.83;;;1.60;99.90;;;;;;5070685;28;20386;-50
2022/12/17 14:01:22;;;;;;;35.38;21.50;;;1.50;99.90;;;;;;5067639;28;20036;-50
2022/12/17 14:03:56;;;;;;;36.97;20.67;;;1.50;99.90;;;;;;5052283;28;20013;-51
2022/12/17 14:06:26;;;;;;;34.42;19.30;;;1.50;99.90;;;;;;5050734;28;20032;-49
2022/12/17 14:08:53;;;;;;;26.33;14.90;;;1.50;99.90;;;;;;5051222;28;20021;-50
2022/12/17 14:14:27;;;;;;;36.38;21.23;;;1.40;99.90;;;;;;5051258;28;20039;-49
2022/12/17 14:16:53;;;;;;;33.30;19.52;;;1.40;99.90;;;;;;5048623;28;20021;-49
2022/12/17 14:19:19;;;;;;;31.63;20.50;;;1.40;99.90;;;;;;5050643;28;20034;-51
2022/12/17 14:21:45;;;;;;;33.38;20.23;;;1.40;99.90;;;;;;5050896;28;20449;-51
2022/12/17 14:24:12;;;;;;;36.95;21.52;;;1.40;99.90;;;;;;5051035;28;20187;-49
2022/12/17 14:26:51;;;;;;;40.03;20.75;;;1.40;99.90;;;;;;5037153;28;20025;-50
2022/12/17 14:29:28;;;;;;;35.53;18.48;;;1.40;99.90;;;;;;5030674;28;20390;-50
2022/12/17 14:32:20;;;;;;;30.35;17.77;;;1.30;99.90;;;;;;5039554;28;20048;-53
2022/12/17 14:34:45;;;;;;;33.50;17.88;;;1.30;99.90;;;;;;5033036;28;20128;-51
2022/12/17 14:37:16;;;;;;;33.17;17.35;;;1.20;99.90;;;;;;5040137;28;20021;-53
2022/12/17 14:39:45;;;;;;;31.52;17.83;;;1.00;99.90;;;;;;5044314;28;20079;-50
2022/12/17 14:42:31;;;;;;;35.15;17.35;;;0.90;99.90;;;;;;5046233;28;20059;-51
2022/12/17 14:45:21;;;;;;;29.23;16.45;;;0.80;99.90;;;;;;5043997;28;20036;-51
2022/12/17 14:47:58;;;;;;;27.75;16.33;;;0.80;99.90;;;;;;5049647;28;20056;-50
2022/12/17 14:50:28;;;;;;;29.17;16.40;;;0.70;99.90;;;;;;5049130;28;20067;-50
2022/12/17 14:52:55;;;;;;;36.35;18.20;;;0.70;99.90;;;;;;5040585;28;20029;-50
2022/12/17 14:55:29;;;;;;;33.40;17.15;;;0.60;99.90;;;;;;5061929;28;20440;-50
2022/12/17 14:58:13;;;;;;;29.02;16.30;;;0.60;99.90;;;;;;5070590;28;20028;-50
2022/12/17 15:00:45;;;;;;;25.27;15.25;;;0.40;99.90;;;;;;5069876;28;20016;-53
2022/12/17 15:03:17;;;;;;;23.77;14.98;;;0.30;99.90;;;;;;5049605;28;20029;-52
2022/12/17 15:05:53;;;;;;;27.13;15.98;;;0.30;99.90;;;;;;5050193;28;20489;-50
2022/12/17 15:08:20;;;;;;;25.15;14.93;;;0.20;99.90;;;;;;5050490;28;20029;-53
2022/12/17 15:10:45;;;;;;;26.48;15.32;;;0.10;99.90;;;;;;5055304;28;20044;-50
2022/12/17 15:13:11;;;;;;;27.45;15.75;;;0.10;99.90;;;;;;5049480;28;20437;-50
2022/12/17 15:15:36;;;;;;;27.67;16.00;;;0.00;99.90;;;;;;5044784;28;20021;-50
2022/12/17 15:18:02;;;;;;;27.38;15.55;;;-0.10;99.90;;;;;;5048507;28;20029;-50
2022/12/17 15:20:27;;;;;;;28.70;15.50;;;-0.10;99.90;;;;;;5047788;28;20036;-51
2022/12/17 15:22:53;;;;;;;25.65;14.85;;;-0.20;99.90;;;;;;5041350;28;20017;-50
2022/12/17 15:25:19;;;;;;;29.67;16.23;;;-0.20;99.90;;;;;;5051478;28;20474;-51
2022/12/17 15:27:45;;;;;;;32.03;17.35;;;-0.30;99.90;;;;;;5044900;28;20119;-50
2022/12/17 15:30:15;;;;;;;35.08;17.60;;;-0.30;99.90;;;;;;5044916;28;20025;-51
2022/12/17 15:32:42;;;;;;;36.00;19.67;;;-0.40;99.90;;;;;;5038939;28;20339;-51
2022/12/17 15:35:09;;;;;;;29.02;17.13;;;-0.40;99.90;;;;;;5033688;28;20025;-51
2022/12/17 15:37:34;;;;;;;38.38;17.55;;;-0.50;99.90;;;;;;5034933;28;20448;-50
2022/12/17 15:40:00;;;;;;;28.70;16.83;;;-0.50;99.90;;;;;;5039579;28;20036;-52
2022/12/17 15:45:10;;;;;;;38.92;20.05;;;-0.60;99.90;;;;;;5043695;28;20449;-50
2022/12/17 15:47:35;;;;;;;34.03;18.60;;;-0.60;99.90;;;;;;5040537;28;20024;-52
2022/12/17 15:50:01;;;;;;;29.88;16.65;;;-0.60;99.90;;;;;;5035598;28;20064;-50
2022/12/17 15:52:27;;;;;;;27.67;16.40;;;-0.70;99.90;;;;;;5034122;28;20463;-49
2022/12/17 15:54:52;;;;;;;28.98;16.42;;;-0.70;99.90;;;;;;5037911;28;20116;-49
2022/12/17 15:57:18;;;;;;;30.92;16.75;;;-0.80;99.90;;;;;;5036371;28;20485;-49
2022/12/17 15:59:43;;;;;;;30.73;15.77;;;-0.90;99.90;;;;;;5035451;28;20052;-51
2022/12/17 16:02:09;;;;;;;29.25;16.77;;;-1.00;99.90;;;;;;5036092;28;20025;-50
2022/12/17 16:04:36;;;;;;;29.98;17.27;;;-1.00;99.90;;;;;;5042886;28;20098;-49
2022/12/17 16:07:02;;;;;;;33.90;17.30;;;-1.00;99.90;;;;;;5042537;28;20045;-49
2022/12/17 16:09:28;;;;;;;33.78;18.08;;;-1.10;99.90;;;;;;5042421;28;20498;-49
2022/12/17 16:11:54;;;;;;;31.73;18.83;;;-1.10;99.90;;;;;;5047614;28;20086;-49
2022/12/17 16:14:21;;;;;;;47.03;22.90;;;-1.10;99.90;;;;;;5041173;28;20025;-50
2022/12/17 16:16:46;;;;;;;41.00;20.40;;;-1.20;99.90;;;;;;5043255;28;20009;-50
2022/12/17 16:19:12;;;;;;;45.22;22.58;;;-1.20;99.90;;;;;;5043787;28;20044;-49
2022/12/17 16:21:37;;;;;;;52.63;23.73;;;-1.10;99.90;;;;;;5042135;28;20475;-51
2022/12/17 16:24:03;;;;;;;44.40;22.15;;;-1.20;99.90;;;;;;5046240;28;20044;-50
2022/12/17 16:26:28;;;;;;;45.90;24.25;;;-1.20;99.90;;;;;;5044664;28;20083;-50
2022/12/17 16:28:56;;;;;;;41.08;21.65;;;-1.20;99.90;;;;;;5042260;28;20033;-50
2022/12/17 16:31:22;;;;;;;45.67;23.38;;;-1.20;99.90;;;;;;5043461;28;20111;-49
2022/12/17 16:33:47;;;;;;;49.22;21.92;;;-1.30;99.90;;;;;;5043511;28;20104;-49
2022/12/17 16:36:18;;;;;;;42.05;22.10;;;-1.40;99.90;;;;;;5043444;28;20017;-52
2022/12/17 16:38:44;;;;;;;;;;;-1.40;99.90;;;;;;5043481;28;20021;-51
2022/12/17 16:41:10;;;;;;;45.42;22.50;;;-1.40;99.90;;;;;;5048295;28;19916;-51
2022/12/17 16:43:36;;;;;;;43.40;21.30;;;-1.60;99.90;;;;;;5044233;28;20390;-52
2022/12/17 16:46:02;;;;;;;46.97;24.23;;;-1.50;99.90;;;;;;5042262;28;20021;-49
2022/12/17 16:48:27;;;;;;;52.30;26.02;;;-1.60;99.90;;;;;;5044877;28;20041;-50
2022/12/17 16:50:53;;;;;;;45.65;25.42;;;-1.60;99.90;;;;;;5040031;28;20044;-53
2022/12/17 16:53:18;;;;;;;41.78;22.77;;;-1.70;99.90;;;;;;5042763;28;20021;-52
2022/12/17 16:55:46;;;;;;;49.70;25.40;;;-1.70;99.90;;;;;;5041113;28;20041;-54
2022/12/17 16:58:13;;;;;;;51.60;26.45;;;-1.70;99.90;;;;;;5039703;28;20111;-52
2022/12/17 17:00:39;;;;;;;53.83;26.45;;;-1.80;99.90;;;;;;5043076;28;20016;-51
2022/12/17 17:03:06;;;;;;;45.13;24.48;;;-1.90;99.90;;;;;;5040650;28;20159;-53
2022/12/17 17:05:32;;;;;;;53.65;26.35;;;-1.80;99.90;;;;;;5040686;28;20022;-52
2022/12/17 17:07:58;;;;;;;47.20;25.85;;;-1.90;99.90;;;;;;5042770;28;20074;-51
2022/12/17 17:10:24;;;;;;;47.13;24.88;;;-2.00;99.90;;;;;;5045378;28;20025;-53
2022/12/17 17:12:54;;;;;;;48.47;25.25;;;-1.90;99.90;;;;;;5044477;28;20372;-51
2022/12/17 17:15:20;;;;;;;51.83;27.20;;;-1.90;99.90;;;;;;5034127;28;20032;-49
2022/12/17 17:17:46;;;;;;;62.35;28.27;;;-2.00;99.90;;;;;;5037882;28;20025;-52
2022/12/17 17:20:11;;;;;;;61.30;30.95;;;-2.10;99.90;;;;;;5042869;28;20024;-49
2022/12/17 17:22:37;;;;;;;56.40;28.02;;;-2.10;99.90;;;;;;5038080;28;20404;-49
2022/12/17 17:25:03;;;;;;;62.70;31.00;;;-2.10;99.90;;;;;;5037041;28;20025;-49
2022/12/17 17:27:29;;;;;;;60.22;31.25;;;-2.00;99.90;;;;;;5030436;28;20028;-52
2022/12/17 17:29:55;;;;;;;67.05;32.60;;;-2.00;99.90;;;;;;5041934;28;20398;-53
2022/12/17 17:32:21;;;;;;;67.68;35.55;;;-2.00;99.90;;;;;;5039286;28;20108;-49
2022/12/17 17:34:47;;;;;;;65.82;33.50;;;-1.90;99.90;;;;;;5042370;28;20379;-49
2022/12/17 17:37:13;;;;;;;61.58;33.67;;;-2.00;99.90;;;;;;5038865;28;20071;-50
2022/12/17 17:39:38;;;;;;;63.58;32.75;;;-2.00;99.90;;;;;;5052120;28;20054;-50
2022/12/17 17:42:04;;;;;;;63.45;32.13;;;-1.90;99.90;;;;;;5052366;28;20732;-49
2022/12/17 17:44:30;;;;;;;68.03;32.88;;;-1.90;99.90;;;;;;5050822;28;20410;-49
2022/12/17 17:46:55;;;;;;;61.80;30.98;;;-2.00;99.90;;;;;;5049350;28;20125;-49
2022/12/17 17:49:21;;;;;;;64.78;32.75;;;-1.90;99.90;;;;;;5047658;28;20462;-50
2022/12/17 17:51:46;;;;;;;64.82;32.30;;;-1.90;99.90;;;;;;5052209;28;20083;-49
2022/12/17 17:54:12;;;;;;;64.95;33.00;;;-1.90;99.90;;;;;;5041576;28;20086;-50
2022/12/17 17:56:39;;;;;;;66.82;33.25;;;-1.90;99.90;;;;;;5038525;28;20083;-48
2022/12/17 17:59:08;;;;;;;69.25;34.50;;;-1.90;99.90;;;;;;5038986;28;20317;-52
2022/12/17 18:01:37;;;;;;;62.78;34.13;;;-1.90;99.90;;;;;;5036990;28;20064;-52
2022/12/17 18:04:04;;;;;;;67.03;33.65;;;-1.80;99.90;;;;;;5039735;28;20486;-51
2022/12/17 18:06:30;;;;;;;64.15;32.13;;;-1.90;99.90;;;;;;5039030;28;20025;-48
2022/12/17 18:08:56;;;;;;;63.60;34.78;;;-1.90;99.90;;;;;;5048560;28;20074;-50
2022/12/17 18:11:23;;;;;;;60.97;32.88;;;-1.90;99.90;;;;;;5064238;28;20104;-52
2022/12/17 18:13:56;;;;;;;67.13;33.90;;;-1.90;99.90;;;;;;5048926;28;20028;-54
2022/12/17 18:16:27;;;;;;;69.00;31.80;;;-1.90;99.90;;;;;;5049155;28;20410;-56
2022/12/17 18:19:02;;;;;;;58.65;33.40;;;-1.90;99.90;;;;;;5050125;28;20071;-48
2022/12/17 18:21:29;;;;;;;65.30;32.53;;;-1.90;99.90;;;;;;5050507;28;20062;-50
2022/12/17 18:23:59;;;;;;;61.47;31.23;;;-1.90;99.90;;;;;;5052853;28;20032;-50
2022/12/17 18:26:26;;;;;;;69.75;32.65;;;-2.00;99.90;;;;;;5046698;28;20482;-51
2022/12/17 18:28:51;;;;;;;67.03;32.55;;;-2.00;99.90;;;;;;5049903;28;20033;-55
2022/12/17 18:31:20;;;;;;;64.35;30.25;;;-1.90;99.90;;;;;;5049554;28;20484;-54
2022/12/17 18:34:00;;;;;;;62.83;31.15;;;-1.90;99.90;;;;;;5048979;28;20032;-55
2022/12/17 18:36:31;;;;;;;62.10;29.55;;;-1.90;99.90;;;;;;5050206;28;20032;-49
2022/12/17 18:38:59;;;;;;;60.00;36.45;;;-1.90;99.90;;;;;;5049328;28;20056;-50
2022/12/17 18:44:10;;;;;;;51.85;25.48;;;-1.90;99.90;;;;;;5049616;28;20035;-56
2022/12/17 18:46:36;;;;;;;52.15;25.58;;;-1.80;99.90;;;;;;5048615;28;20025;-50
2022/12/17 18:49:05;;;;;;;52.22;25.50;;;-1.90;99.90;;;;;;5050021;28;20467;-53
2022/12/17 18:51:31;;;;;;;43.50;23.42;;;-1.90;99.90;;;;;;5052386;28;20573;-47
2022/12/17 18:53:59;;;;;;;43.60;23.90;;;-1.80;99.90;;;;;;5044475;28;20021;-47
2022/12/17 18:56:25;;;;;;;51.00;25.25;;;-1.80;99.90;;;;;;5049838;28;20032;-46
2022/12/17 18:58:55;;;;;;;49.20;22.83;;;-1.80;99.90;;;;;;5048567;28;20500;-50
2022/12/17 19:01:26;;;;;;;45.22;24.88;;;-1.80;99.90;;;;;;5043427;28;20033;-48
2022/12/17 19:03:53;;;;;;;44.42;23.83;;;-1.80;99.90;;;;;;5043952;28;20092;-48
2022/12/17 19:06:19;;;;;;;52.63;26.55;;;-1.90;99.90;;;;;;5039373;28;20479;-48
2022/12/17 19:08:45;;;;;;;53.92;26.70;;;-1.80;99.90;;;;;;5038429;28;20048;-47
2022/12/17 19:11:12;;;;;;;56.47;29.23;;;-1.90;99.90;;;;;;5043085;28;20498;-46
2022/12/17 19:13:37;;;;;;;49.60;25.52;;;-1.90;99.90;;;;;;5039192;28;20098;-49
2022/12/17 19:16:08;;;;;;;49.50;26.50;;;-2.00;99.90;;;;;;5039586;28;20100;-47
2022/12/17 19:18:33;;;;;;;;;;;-2.00;99.90;;;;;;5040617;28;20425;-49
2022/12/17 19:20:59;;;;;;;47.78;24.63;;;-1.90;99.90;;;;;;5047461;28;19905;-47
2022/12/17 19:23:25;;;;;;;49.63;25.65;;;-1.90;99.90;;;;;;5048242;28;20033;-48
2022/12/17 19:25:50;;;;;;;51.83;25.42;;;-2.00;99.90;;;;;;5047124;28;20028;-50
2022/12/17 19:28:17;;;;;;;59.05;28.13;;;-2.00;99.90;;;;;;5047689;28;20025;-47
2022/12/17 19:30:42;;;;;;;54.38;27.08;;;-2.10;99.90;;;;;;5048273;28;20650;-47
2022/12/17 19:33:08;;;;;;;53.65;28.75;;;-2.10;99.90;;;;;;5047772;28;20039;-48
2022/12/17 19:35:35;;;;;;;48.83;26.27;;;-2.10;99.90;;;;;;5049470;28;20029;-50
2022/12/17 19:38:00;;;;;;;54.30;26.50;;;-2.20;99.90;;;;;;5047690;28;20025;-47
2022/12/17 19:40:26;;;;;;;52.90;29.15;;;-2.30;99.90;;;;;;5047428;28;20051;-48
2022/12/17 19:42:54;;;;;;;55.55;30.05;;;-2.40;99.90;;;;;;5045609;28;20079;-51
2022/12/17 19:45:20;;;;;;;57.40;28.33;;;-2.40;99.90;;;;;;5065549;28;20590;-49
2022/12/17 19:47:46;;;;;;;57.10;29.23;;;-2.50;99.90;;;;;;5067577;28;20040;-50
2022/12/17 19:50:11;;;;;;;68.45;32.55;;;-2.50;99.90;;;;;;5068222;28;20066;-52
2022/12/17 19:52:37;;;;;;;59.95;29.80;;;-2.50;99.90;;;;;;5056960;28;20032;-49
2022/12/17 19:55:03;;;;;;;62.85;32.45;;;-2.60;99.90;;;;;;5048556;28;20024;-49
2022/12/17 19:57:29;;;;;;;61.53;29.48;;;-2.70;99.90;;;;;;5047910;28;20062;-50
2022/12/17 19:59:54;;;;;;;57.67;29.63;;;-2.70;99.90;;;;;;5045768;28;20396;-53
2022/12/17 20:02:19;;;;;;;59.17;30.10;;;-2.80;99.90;;;;;;5047188;28;20087;-50
2022/12/17 20:04:45;;;;;;;57.28;29.98;;;-2.80;99.90;;;;;;5063503;28;20032;-50
2022/12/17 20:07:10;;;;;;;59.40;30.25;;;-2.80;99.90;;;;;;5049560;28;20402;-50
2022/12/17 20:09:36;;;;;;;53.30;27.95;;;-2.80;99.90;;;;;;5052271;28;20039;-49
2022/12/17 20:12:02;;;;;;;61.13;31.13;;;-2.90;99.90;;;;;;5045745;28;20120;-49
2022/12/17 20:14:28;;;;;;;57.55;28.30;;;-2.90;99.90;;;;;;5037677;28;20432;-49
2022/12/17 20:16:55;;;;;;;58.03;29.00;;;-3.10;99.90;;;;;;5039136;28;20486;-49
2022/12/17 20:19:23;;;;;;;57.63;30.80;;;-3.10;99.90;;;;;;5029799;28;20373;-49
2022/12/17 20:21:49;;;;;;;63.63;34.72;;;-3.10;99.90;;;;;;5035914;28;20121;-49
2022/12/17 20:24:16;;;;;;;67.80;33.88;;;-3.20;99.90;;;;;;5046819;28;20114;-48
2022/12/17 20:26:42;;;;;;;63.90;32.72;;;-3.20;99.90;;;;;;5041081;28;20021;-48
2022/12/17 20:29:08;;;;;;;63.75;33.42;;;-3.30;99.90;;;;;;5048121;28;20078;-51
2022/12/17 20:31:35;;;;;;;65.15;33.05;;;-3.30;99.90;;;;;;5045096;28;20021;-51
2022/12/17 20:34:02;;;;;;;67.65;36.13;;;-3.30;99.90;;;;;;5048418;28;20070;-49
2022/12/17 20:36:28;;;;;;;71.18;35.08;;;-3.40;99.90;;;;;;5048257;28;20022;-48
2022/12/17 20:38:54;;;;;;;66.43;35.80;;;-3.40;99.90;;;;;;5046901;28;20021;-48
2022/12/17 20:41:25;;;;;;;67.27;35.60;;;-3.40;99.90;;;;;;5053606;28;20071;-48
2022/12/17 20:43:51;;;;;;;72.22;36.15;;;-3.50;99.90;;;;;;5047437;28;20032;-52
2022/12/17 20:46:19;;;;;;;81.18;41.08;;;-3.50;99.90;;;;;;5047510;28;20029;-51
2022/12/17 20:48:45;;;;;;;82.43;40.17;;;-3.50;99.90;;;;;;5048487;28;20094;-53
2022/12/17 20:51:17;;;;;;;80.88;38.70;;;-3.60;99.90;;;;;;5048236;28;20021;-52
2022/12/17 20:53:43;;;;;;;85.85;42.05;;;-3.70;99.90;;;;;;5050875;28;20021;-52
2022/12/17 20:56:12;;;;;;;86.85;41.67;;;-3.80;99.90;;;;;;5049089;28;20037;-50
2022/12/17 20:58:40;;;;;;;80.97;42.00;;;-3.80;99.90;;;;;;5062102;28;20044;-52
2022/12/17 21:01:15;;;;;;;77.25;40.10;;;-3.80;99.90;;;;;;5069352;28;20024;-53
2022/12/17 21:03:41;;;;;;;69.53;35.90;;;-3.80;99.90;;;;;;5048337;28;20493;-49
2022/12/17 21:06:13;;;;;;;76.40;38.30;;;-3.90;99.90;;;;;;5049972;28;20147;-52
2022/12/17 21:08:40;;;;;;;87.90;41.83;;;-3.90;99.90;;;;;;5051703;28;20029;-52
2022/12/17 21:11:06;;;;;;;97.78;47.60;;;-3.90;99.90;;;;;;5055160;28;20023;-50
2022/12/17 21:13:32;;;;;;;91.60;45.15;;;-3.90;99.90;;;;;;5051558;28;20406;-52
2022/12/17 21:16:03;;;;;;;108.43;47.92;;;-4.00;99.90;;;;;;5051501;28;20024;-52
2022/12/17 21:18:30;;;;;;;88.78;44.13;;;-4.00;99.90;;;;;;5050577;28;20075;-55
2022/12/17 21:21:06;;;;;;;90.75;44.13;;;-4.00;99.90;;;;;;5043781;28;20574;-50
2022/12/17 21:23:32;;;;;;;89.75;43.80;;;-4.10;99.90;;;;;;5049651;28;20124;-52
2022/12/17 21:26:03;;;;;;;85.78;41.85;;;-4.10;99.90;;;;;;5050739;28;20029;-54
2022/12/17 21:28:29;;;;;;;90.15;39.90;;;-4.20;99.90;;;;;;5051305;28;20390;-52
2022/12/17 21:30:55;;;;;;;88.22;41.78;;;-4.20;99.90;;;;;;5048663;28;20025;-52
2022/12/17 21:33:20;;;;;;;87.28;38.83;;;-4.30;99.90;;;;;;5051452;28;20501;-52
2022/12/17 21:35:46;;;;;;;84.88;38.53;;;-4.30;99.90;;;;;;5051160;28;20025;-49
2022/12/17 21:38:13;;;;;;;80.18;39.15;;;-4.30;99.90;;;;;;5049872;28;20024;-50
2022/12/17 21:40:38;;;;;;;81.90;44.13;;;-4.40;99.90;;;;;;5055091;28;20045;-52
2022/12/17 21:43:04;;;;;;;76.07;40.13;;;-4.40;99.90;;;;;;5049750;28;20072;-50
2022/12/17 21:45:35;;;;;;;76.70;36.85;;;-4.50;99.90;;;;;;5050270;28;20032;-52
2022/12/17 21:48:01;;;;;;;71.38;36.88;;;-4.50;99.90;;;;;;5051188;28;20106;-52
2022/12/17 21:50:26;;;;;;;76.07;35.90;;;-4.60;99.90;;;;;;5048208;28;20126;-49
2022/12/17 21:52:52;;;;;;;76.18;38.65;;;-4.60;99.90;;;;;;5047057;28;20443;-48
2022/12/17 21:55:17;;;;;;;79.55;39.72;;;-4.60;99.90;;;;;;5043544;28;20021;-48
2022/12/17 21:57:43;;;;;;;84.82;40.28;;;-4.60;99.90;;;;;;5036567;28;20039;-50
2022/12/17 22:00:09;;;;;;;74.47;38.97;;;-4.70;99.90;;;;;;5035061;28;20518;-52
2022/12/17 22:02:34;;;;;;;86.47;40.58;;;-4.70;99.90;;;;;;5037616;28;20032;-48
2022/12/17 22:05:00;;;;;;;82.70;42.10;;;-4.70;99.90;;;;;;5042916;28;20021;-51
2022/12/17 22:07:27;;;;;;;76.88;41.30;;;-4.70;99.90;;;;;;5038488;28;20086;-52
2022/12/17 22:09:52;;;;;;;84.32;44.88;;;-4.70;99.90;;;;;;5046024;28;20013;-49
2022/12/17 22:15:02;;;;;;;87.82;42.47;;;-4.70;99.90;;;;;;5044090;28;20129;-50
2022/12/17 22:17:28;;;;;;;87.35;43.13;;;-4.80;99.90;;;;;;5039542;28;20029;-48
2022/12/17 22:19:53;;;;;;;93.32;45.90;;;-4.80;99.90;;;;;;5044667;28;20457;-48
2022/12/17 22:22:19;;;;;;;92.38;44.53;;;-4.80;99.90;;;;;;5039267;28;20029;-49
2022/12/17 22:24:44;;;;;;;99.78;44.85;;;-4.90;99.90;;;;;;5041529;28;20105;-50
2022/12/17 22:27:10;;;;;;;92.10;45.20;;;-4.90;99.90;;;;;;5040630;28;20432;-48
2022/12/17 22:35:04;;;;;;;100.70;44.38;;;-5.00;99.90;;;;;;5041272;28;20109;-42
2022/12/17 22:37:30;;;;;;;93.18;45.08;;;-5.10;99.90;;;;;;5039154;28;20108;-42
2022/12/17 22:39:55;;;;;;;97.75;46.22;;;-5.10;99.90;;;;;;5043788;28;20628;-41
2022/12/17 22:45:06;;;;;;;92.18;43.80;;;-5.10;99.90;;;;;;5040363;28;20113;-42
2022/12/17 22:47:31;;;;;;;101.50;47.13;;;-5.10;99.90;;;;;;5039293;28;20017;-41
2022/12/17 22:49:57;;;;;;;95.80;44.50;;;-5.10;99.90;;;;;;5038602;28;20088;-41
2022/12/17 22:52:22;;;;;;;99.93;45.72;;;-5.10;99.90;;;;;;5040704;28;20103;-40
2022/12/17 22:54:48;;;;;;;89.43;46.92;;;-5.20;99.90;;;;;;5038299;28;20449;-43
2022/12/17 22:57:13;;;;;;;89.93;44.83;;;-5.20;99.90;;;;;;5039369;28;20108;-42
2022/12/17 22:59:39;;;;;;;93.35;44.85;;;-5.20;99.90;;;;;;5043922;28;20029;-42
2022/12/17 23:02:04;;;;;;;85.47;42.70;;;-5.20;99.90;;;;;;5043501;28;20488;-42
2022/12/17 23:04:29;;;;;;;89.50;43.65;;;-5.30;99.90;;;;;;5038299;28;20025;-42
2022/12/17 23:06:55;;;;;;;89.82;39.25;;;-5.30;99.90;;;;;;5038865;28;20093;-42
2022/12/17 23:09:20;;;;;;;84.65;39.72;;;-5.40;99.90;;;;;;5041184;28;20095;-43
2022/12/17 23:11:47;;;;;;;85.97;40.67;;;-5.40;99.90;;;;;;5042751;28;20021;-41
2022/12/17 23:14:13;;;;;;;87.93;41.03;;;-5.50;99.90;;;;;;5038412;28;20029;-41
2022/12/17 23:16:39;;;;;;;86.60;42.55;;;-5.50;99.90;;;;;;5038338;28;20028;-41
2022/12/17 23:19:05;;;;;;;85.38;41.33;;;-5.40;99.90;;;;;;5039638;28;20410;-41
2022/12/17 23:21:31;;;;;;;79.72;41.42;;;-5.50;99.90;;;;;;5037877;28;20033;-41
2022/12/17 23:23:57;;;;;;;79.65;39.50;;;-5.50;99.90;;;;;;5038828;28;20013;-41
2022/12/17 23:26:25;;;;;;;83.38;40.10;;;-5.50;99.90;;;;;;5039792;28;20027;-41
2022/12/17 23:28:57;;;;;;;80.28;38.95;;;-5.50;99.90;;;;;;5041355;28;20759;-41
2022/12/17 23:31:23;;;;;;;77.78;37.70;;;-5.50;99.90;;;;;;5043054;28;20031;-42
2022/12/17 23:33:49;;;;;;;82.13;38.08;;;-5.60;99.90;;;;;;5037807;28;20147;-41
2022/12/17 23:36:18;;;;;;;79.00;38.45;;;-5.60;99.90;;;;;;5037170;28;20132;-41
2022/12/17 23:38:45;;;;;;;79.55;38.42;;;-5.70;99.90;;;;;;5039607;28;20044;-41
2022/12/17 23:41:16;;;;;;;78.63;38.35;;;-5.60;99.90;;;;;;5043792;28;20385;-41
2022/12/17 23:43:42;;;;;;;76.43;36.70;;;-5.70;99.90;;;;;;5040141;28;20018;-41
2022/12/17 23:46:09;;;;;;;81.90;38.45;;;-5.60;99.90;;;;;;5037222;28;20032;-41
2022/12/17 23:48:37;;;;;;;72.45;36.83;;;-5.70;99.90;;;;;;5038656;28;20044;-41
2022/12/17 23:51:04;;;;;;;72.82;34.75;;;-5.70;99.90;;;;;;5039161;28;20114;-41
2022/12/17 23:53:31;;;;;;;69.60;34.08;;;-5.80;99.90;;;;;;5037740;28;20107;-41
2022/12/17 23:56:05;;;;;;;68.18;33.42;;;-5.80;99.90;;;;;;5038538;28;20116;-42
2022/12/17 23:58:31;;;;;;;75.30;34.97;;;-5.80;99.90;;;;;;5041486;28;20028;-41
